Create Custom Reports and Graphics: Custom Report

Latest Observations

MWA Stations

15 Minute Data | America/Los_Angeles
as of 3/1/24 3:11 AM PST
Station Date Time Temp (°F) WindChill (°F) RH (%) Dew Pt (°F) Wind Dir (°) Wind Spd (mph) Wind Gust (mph) Solar Rad (W/m2) Pressure (mb) Daily Min Temp (°F) Daily Max Temp (°F) Daily Max Wind (mph) Daily Rain (In) Yest MinT (°F) Yest MaxT (°F) Yest MaxGst (mph) Yest Precip (In) MinBV Day (V)
MWA Office 3/1/24 0300 44.9   2.7 41.0   0.6 79   3 38.8   1.6 SSW | 194 4.4   2.2 9.6   5.0 0   0 1,019.7   0.7 44.9   3.1 46.6   1.5 23.7   19.1 0.00 39.0 59.8 32.4 0.00 13.6   0.1
MWA OPS 3/1/24 0300 45.7   3.9 39.8   8.0 77   14 38.9   1.2 SW | 220 12.6   7.9 20.6   12.5 0   0 1,019.1   1.7 45.6   1.1 46.8   5.4 26.1   12.9 0.00 42.2 58.3 30.0 0.00 12.8   0.0
LV-PS 3/1/24 0300 44.1   0.8 42.9   0.4 69   5 34.6   1.0 ESE | 119 3.0   0.5 6.4   0.2 0   0 1,018.8   0.6 43.4   1.4 47.7   0.5 6.6   2.0 0.00 38.6 68.6 24.8 0.00 12.9   0.0
JV-PS 3/1/24 0300 40.2   1.1 37.9 78   8 34.0   1.6 SSW | 195 3.7   1.7 5.9   2.0 0   0 1,019.7   0.6 39.4   1.2 44.0   2.6 5.9   0.4 0.00 37.3 68.0 22.4 0.00 12.9   0.0
BDVWA 3/1/24 0300 40.2   4.9 36.8   5.1 63   14 28.6   1.3 W | 268 4.9   1.0 7.2   2.0 0   0 1,019.6   1.4 39.9   4.5 44.5   4.5 8.8   1.1 0.00 42.2 63.8 16.4 0.00 12.9   0.0
Newberry Springs 3/1/24 0300 48.2   0.1 44.7 74   8 40.4   2.9 WSW | 241 7.6   5.7 12.7   9.4 0   0 1,018.5   1.0 48.0   2.0 53.7   0.6 18.8   9.9 0.00 43.4 73.0 26.3 0.00 12.9   0.0
Pinon Hills 3/1/24 0300 35.7   12.2 - 93   51 34.0   8.0 S | 179 2.6   0.5 7.7   1.1 0   0 1,020.6   4.1 34.8   12.4 42.8   9.0 7.7   13.4 0.00 42.0 60.0 32.9 0.00 12.9   0.0
Helendale 3/1/24 0300 39.1   4.3 36.6   3.8 88   2 35.8   3.6 SW | 231 3.7   1.5 5.3   2.6 0   0 1,020.4   2.0 38.3   4.1 45.3   4.0 11.8   0.4 0.00 39.8 65.3 26.7 0.00 13.0   0.0
Lenwood 3/1/24 0300 44.2   4.7 37.6   10.6 82   14 39.1   0.1 SW | 217 12.3   9.5 15.6   11.6 0   0 1,019.1   1.5 44.2   2.2 47.7   2.0 18.6   12.9 0.00 39.1 67.9 31.6 0.00 12.9   0.0
Oak Hills 3/1/24 0300 39.1   4.1 31.9   4.3 96   4 38.0   5.1 SSE | 163 5.7   4.5 17.5   0.9 0   0 1,020.4   1.6 39.1   4.0 41.2   3.6 21.3   0.9 0.00 41.0 49.5 28.3 0.00 13.0   0.0
Pipes Wash Canyon 3/1/24 0300 40.2   0.1 - 56   7 25.9   3.0 WNW | 284 0.6   1.6 3.3   1.3 0   0 1,018.8   0.3 39.8   0.5 43.0   4.0 8.8   0.4 0.00 40.0 60.9 17.8 0.00 12.8   0.0
Max     48.2 44.7 96 40.4 - 12.6 20.6 0 1,020.6 48.0 53.7 26.1 0.00 43.4 73.0 32.9 0.00 13.6
Avg     42.0 38.8 78 35.3 - 5.6 10.2 0 1,019.5 - - - - - - - - -
Min     35.7 31.9 56 25.9 - 0.6 3.3 0 1,018.5 34.8 41.2 5.9 0.00 37.3 49.5 16.4 0.00 12.8

Latest Observations

Map

15 Minute Data

Rainfall & ETo

MWA Stations

15 Minute Data | America/Los_Angeles
as of 3/1/24 3:11 AM PST
Station Date Time Latest Rain (In) Daily Rain (In) Yest Precip (In) Month Precip (In) Season Precip (In) Daily ETo (in) Yest ETo (In) 7 Day ETo (in)
MWA Office 3/1/24 0300 0.00 0.00 0.00 0.00 7.04 0.001 0.13 0.75
MWA OPS 3/1/24 0300 0.00 0.00 0.00 0.00 8.04 0.001 0.13 0.79
LV-PS 3/1/24 0300 0.00 0.00 0.00 0.00 7.77 0.000 0.16 0.85
JV-PS 3/1/24 0300 0.00 0.00 0.00 0.00 7.12 0.000 0.14 0.80
BDVWA 3/1/24 0300 0.00 0.00 0.00 0.00 6.46 0.001 0.15 0.86
Newberry Springs 3/1/24 0300 0.00 0.00 0.00 0.00 6.01 0.002 0.18 0.90
Pinon Hills 3/1/24 0300 0.00 0.00 0.00 0.00 13.10 0.000 0.14 0.72
Helendale 3/1/24 0300 0.00 0.00 0.00 0.00 6.88 0.000 0.14 0.77
Lenwood 3/1/24 0300 0.00 0.00 0.00 0.00 5.27 0.001 0.16 0.83
Oak Hills 3/1/24 0300 0.00 0.00 0.00 0.00 13.84 0.000 0.04 0.64
Pipes Wash Canyon 3/1/24 0300 0.00 0.00 0.00 0.00 9.46 0.000 0.13 0.78
Max     0.00 0.00 0.00 0.00 13.84 0.002 0.18 0.90
Avg     0.00 - - - - - - -
Min     0.00 0.00 0.00 0.00 5.27 0.000 0.04 0.64